Friday, January 19, 2018, 7:38 AM GMT
Back to Local

CWNH, Riviere Du Loup, Que.

Location: , , Canada Lat: 47.8
Local Time: 7:38 AM GMT ( 7:38 GMT) Lon: -69.55
Time Zone: GMT Elev: 485 ft

Show me the last for .
Show Decoded

2018-01-19 07:00 METAR CWNH 190700Z AUTO 00000KT M13/M15 RMK AO1 SOG 18 5001 SLP119 T11261146 =
2018-01-19 06:00 METAR CWNH 190600Z AUTO 00000KT M13/M15 RMK AO1 SOG 18 0000 SLP117 T11301148 =
2018-01-19 05:00 METAR CWNH 190500Z AUTO 00000KT M13/M15 RMK AO1 SOG 18 0003 SLP116 T11281147 =
2018-01-19 04:00 METAR CWNH 190400Z AUTO 00000KT M12/M14 RMK AO1 SOG 18 2010 SLP120 T11211142 =
2018-01-19 03:00 METAR CWNH 190300Z AUTO 00000KT M11/M14 RMK AO1 SOG 18 3007 SLP117 T11071136 =
2018-01-19 02:00 METAR CWNH 190200Z AUTO 00000KT M10/M12 RMK AO1 SOG 18 1008 SLP112 T11011123 =
2018-01-19 01:00 METAR CWNH 190100Z AUTO 33001KT M09/M11 RMK AO1 SOG 18 1015 SLP109 T10891109 =
2018-01-19 00:00 METAR CWNH 190000Z AUTO 00000KT M09/M11 RMK AO1 SOG 18 3018 SLP109 T10911108
                 50006 =
2018-01-18 23:00 METAR CWNH 182300Z AUTO 02001KT M07/M10 RMK AO1 SOG 18 3019 SLP104 T10711095
                 50006 =
2018-01-18 22:00 METAR CWNH 182200Z AUTO 00000KT M05/M07 RMK AO1 SOG 18 1014 SLP093 T10521071
                 50006 =
2018-01-18 21:00 METAR CWNH 182100Z AUTO 21001KT M05/M07 RMK AO1 SOG 18 3015 SLP090 T10511073
                 50006 =
2018-01-18 20:00 METAR CWNH 182000Z AUTO 23002KT M05/M08 RMK AO1 SOG 18 3008 SLP084 T10491076
                 50006 =
2018-01-18 19:00 METAR CWNH 181900Z AUTO 22002KT M05/M08 RMK AO1 6PAST HR SOG 18 5002 SLP079
                 P0002 T10481081 50006 =
2018-01-18 18:00 METAR CWNH 181800Z AUTO 21001KT M05/M08 RMK AO1 2PAST HR SOG 18 6011 SLP075
                 P0001 T10481079 50008 =
2018-01-18 17:00 METAR CWNH 181700Z AUTO 21002KT M05/M08 RMK AO1 6PAST HR SOG 18 8007 SLP076
                 P0002 T10491082 50006 =
2018-01-18 16:00 METAR CWNH 181600Z AUTO 21002KT M06/M09 RMK AO1 SOG 18 0000 SLP081 T10561086 =
2018-01-18 15:00 METAR CWNH 181500Z AUTO 21002KT M06/M09 RMK AO1 SOG 18 3003 SLP086 T10611087 =
2018-01-18 14:00 METAR CWNH 181400Z AUTO 20002KT M07/M09 RMK AO1 SOG 18 5002 SLP083 T10671088 =
2018-01-18 13:00 METAR CWNH 181300Z AUTO 21002KT M07/M09 RMK AO1 SOG 20 6008 SLP081 T10691089 =
2018-01-18 12:00 METAR CWNH 181200Z AUTO 20002KT M07/M09 RMK AO1 SOG 18 6011 SLP083 T10701091 =
2018-01-18 11:00 METAR CWNH 181100Z AUTO 20002KT M07/M09 RMK AO1 SOG 18 6018 SLP086 T10731094 =
2018-01-18 10:00 METAR CWNH 181000Z AUTO 20002KT M08/M10 RMK AO1 SOG 18 6022 SLP090 T10771097 =
2018-01-18 09:00 METAR CWNH 180900Z AUTO 20002KT M08/M10 RMK AO1 SOG 20 8022 SLP095 T10791102 =
2018-01-18 08:00 METAR CWNH 180800Z AUTO 20002KT M08/M10 RMK AO1 SOG 19 8020 SLP104 T10781104 =

Support USWX by starting your Amazon purchase here.